Mallabula, Germany

12:13 PM EST on September 03, 2014 (GMT +1000)
Port Stephens | Change Station
CLOSE
Current Station
Personal Weather Station
Location: Lemon Tree Pass., NSW
Elevation: 150 ft
Nearby Weather Stations

Elev 150 ft 32.73 °S, 152.03 °E | Updated 34 seconds ago

Mostly Cloudy
Mostly Cloudy
56.7 °F
Feels Like 56.7 °F
N
0.0
Wind Variable Wind from North
Gusts 0.0 mph

Today
High -- | Low -- °F
--% Chance of Precip.
Yesterday
High -- | Low -- °F
Precip. -- in
6:07 AM 5:35 PM
First Quarter, 57% visible
Pressure 29.89 in
Visibility 6.2 miles
Clouds Few 1500 ft
Scattered Clouds 3500 ft
Mostly Cloudy 4800 ft
Dew Point 46 °F
Humidity 67%
Rainfall 0.07 in
Snow Depth Not available.
UV 4 out of 12
Pollen Not available.
Air Quality Not available.
Flu Activity Not available.
SPECI YWLM 030200Z 21023G35KT 9999 FEW015 SCT035 BKN048 15/02 Q1012 FM0200 22021G31KT 9999 -SHRA SCT030 BKN040 FM0200 MOD/SEV TURB BLW 5000FT

More Conditions Fewer Conditions

Pressure 29.89 in
Visibility 6.2 miles
Clouds Few 1500 ft
Scattered Clouds 3500 ft
Mostly Cloudy 4800 ft
Dew Point 46 °F
Humidity 67%
Rainfall 0.07 in
Snow Depth Not available.
UV 4 out of 12
Pollen Not available.
Air Quality Not available.
Flu Activity Not available.
SPECI YWLM 030200Z 21023G35KT 9999 FEW015 SCT035 BKN048 15/02 Q1012 FM0200 22021G31KT 9999 -SHRA SCT030 BKN040 FM0200 MOD/SEV TURB BLW 5000FT

More Conditions Fewer Conditions

10-Day Weather Forecast

Almanac

Astronomy

Sep. 03, 2014 Rise Set
Actual Time 6:07 AM EST 5:35 PM EST
Civil Twilight 5:42 AM EST 6:00 PM EST
Nautical Twilight 5:14 AM EST 6:29 PM EST
Astronomical Twilight 4:45 AM EST 6:57 PM EST
Moon 11:24 AM EST 12:37 AM EST
Length of Visible Light 12h 17m
Length of Day
11h 28m
Tomorrow will be 1m 55s longer.
First Quarter, 57% of the Moon is Illuminated
Sep 2
First Quarter
Sep 8
Full
Sep 15
Last Quarter
Sep 24
New
Oct 1
First Quarter

Yesterday's Extremes

Country Highs Country Lows

Community

WunderPhotos

Upload Photos

1,749,841 photos uploaded!

Nearby

Snow Depth

Not available.

Earthquake Activity

City Distance Mag. Time & Date
No recent earthquake activity has been reported nearby.
Minimum magnitude displayed is 2.5.

Coastal Water Temperatures

Place Temperature
No Stations Reporting

Nearby Weather Stations